sensor_id;sensor_type;location;lat;lon;timestamp;P1;durP1;ratioP1;P2;durP2;ratioP2
27412;SDS011;14871;52.702;5.230;2023-11-18T00:02:23;46.78;;;26.83;;
27412;SDS011;14871;52.702;5.230;2023-11-18T00:04:50;45.25;;;27.15;;
27412;SDS011;14871;52.702;5.230;2023-11-18T00:07:16;46.40;;;27.38;;
27412;SDS011;14871;52.702;5.230;2023-11-18T00:09:42;45.63;;;25.98;;
27412;SDS011;14871;52.702;5.230;2023-11-18T00:12:11;47.78;;;27.40;;
27412;SDS011;14871;52.702;5.230;2023-11-18T00:14:38;45.10;;;26.88;;
27412;SDS011;14871;52.702;5.230;2023-11-18T00:17:05;48.00;;;27.45;;
27412;SDS011;14871;52.702;5.230;2023-11-18T00:19:31;50.85;;;27.55;;
27412;SDS011;14871;52.702;5.230;2023-11-18T00:21:57;47.22;;;28.08;;
27412;SDS011;14871;52.702;5.230;2023-11-18T00:24:22;47.70;;;27.75;;
27412;SDS011;14871;52.702;5.230;2023-11-18T00:26:48;46.92;;;27.55;;
27412;SDS011;14871;52.702;5.230;2023-11-18T00:29:15;44.80;;;26.48;;
27412;SDS011;14871;52.702;5.230;2023-11-18T00:31:41;42.85;;;26.52;;
27412;SDS011;14871;52.702;5.230;2023-11-18T00:34:06;45.05;;;26.52;;
27412;SDS011;14871;52.702;5.230;2023-11-18T00:36:32;43.95;;;26.98;;
27412;SDS011;14871;52.702;5.230;2023-11-18T00:38:58;47.47;;;26.35;;
27412;SDS011;14871;52.702;5.230;2023-11-18T00:41:24;46.33;;;26.63;;
27412;SDS011;14871;52.702;5.230;2023-11-18T00:43:50;39.03;;;25.23;;
27412;SDS011;14871;52.702;5.230;2023-11-18T00:46:15;44.08;;;25.58;;
27412;SDS011;14871;52.702;5.230;2023-11-18T00:48:42;41.65;;;25.88;;
27412;SDS011;14871;52.702;5.230;2023-11-18T00:51:08;42.97;;;25.83;;
27412;SDS011;14871;52.702;5.230;2023-11-18T00:53:34;41.45;;;25.90;;
27412;SDS011;14871;52.702;5.230;2023-11-18T00:56:00;42.65;;;24.88;;
27412;SDS011;14871;52.702;5.230;2023-11-18T00:58:26;40.83;;;26.10;;
27412;SDS011;14871;52.702;5.230;2023-11-18T01:00:53;40.05;;;25.02;;
27412;SDS011;14871;52.702;5.230;2023-11-18T01:03:19;47.88;;;27.10;;
27412;SDS011;14871;52.702;5.230;2023-11-18T01:05:45;47.03;;;26.05;;
27412;SDS011;14871;52.702;5.230;2023-11-18T01:08:10;45.03;;;26.83;;
27412;SDS011;14871;52.702;5.230;2023-11-18T01:10:36;45.33;;;26.90;;
27412;SDS011;14871;52.702;5.230;2023-11-18T01:13:03;46.38;;;27.73;;
27412;SDS011;14871;52.702;5.230;2023-11-18T01:15:28;45.13;;;25.90;;
27412;SDS011;14871;52.702;5.230;2023-11-18T01:17:56;45.17;;;25.90;;
27412;SDS011;14871;52.702;5.230;2023-11-18T01:20:22;44.90;;;25.23;;
27412;SDS011;14871;52.702;5.230;2023-11-18T01:22:48;42.42;;;26.25;;
27412;SDS011;14871;52.702;5.230;2023-11-18T01:25:14;45.75;;;26.70;;
27412;SDS011;14871;52.702;5.230;2023-11-18T01:27:43;44.70;;;25.98;;
27412;SDS011;14871;52.702;5.230;2023-11-18T01:30:13;42.60;;;25.20;;
27412;SDS011;14871;52.702;5.230;2023-11-18T01:32:39;40.00;;;24.75;;
27412;SDS011;14871;52.702;5.230;2023-11-18T01:35:05;41.72;;;25.98;;
27412;SDS011;14871;52.702;5.230;2023-11-18T01:37:33;43.65;;;25.10;;
27412;SDS011;14871;52.702;5.230;2023-11-18T01:39:58;38.03;;;23.98;;
27412;SDS011;14871;52.702;5.230;2023-11-18T01:42:24;41.25;;;24.25;;
27412;SDS011;14871;52.702;5.230;2023-11-18T01:44:49;40.88;;;23.88;;
27412;SDS011;14871;52.702;5.230;2023-11-18T01:47:16;38.67;;;24.67;;
27412;SDS011;14871;52.702;5.230;2023-11-18T01:49:41;43.47;;;24.80;;
27412;SDS011;14871;52.702;5.230;2023-11-18T01:52:08;40.47;;;24.58;;
27412;SDS011;14871;52.702;5.230;2023-11-18T01:54:38;37.45;;;23.20;;
27412;SDS011;14871;52.702;5.230;2023-11-18T01:57:04;43.47;;;24.52;;
27412;SDS011;14871;52.702;5.230;2023-11-18T01:59:34;41.95;;;23.58;;
27412;SDS011;14871;52.702;5.230;2023-11-18T02:02:00;40.50;;;23.15;;
27412;SDS011;14871;52.702;5.230;2023-11-18T02:04:26;36.28;;;21.83;;
27412;SDS011;14871;52.702;5.230;2023-11-18T02:06:53;36.78;;;23.05;;
27412;SDS011;14871;52.702;5.230;2023-11-18T02:09:19;42.80;;;23.67;;
27412;SDS011;14871;52.702;5.230;2023-11-18T02:11:57;40.05;;;23.55;;
27412;SDS011;14871;52.702;5.230;2023-11-18T02:14:30;39.45;;;23.52;;
27412;SDS011;14871;52.702;5.230;2023-11-18T02:16:59;36.95;;;22.75;;
27412;SDS011;14871;52.702;5.230;2023-11-18T02:19:27;41.38;;;25.63;;
27412;SDS011;14871;52.702;5.230;2023-11-18T02:21:55;43.13;;;24.30;;
27412;SDS011;14871;52.702;5.230;2023-11-18T02:24:28;38.60;;;24.45;;
27412;SDS011;14871;52.702;5.230;2023-11-18T02:26:59;37.60;;;23.58;;
27412;SDS011;14871;52.702;5.230;2023-11-18T02:29:26;37.72;;;23.08;;
27412;SDS011;14871;52.702;5.230;2023-11-18T02:31:57;39.55;;;23.67;;
27412;SDS011;14871;52.702;5.230;2023-11-18T02:34:28;37.88;;;23.58;;
27412;SDS011;14871;52.702;5.230;2023-11-18T02:36:57;40.65;;;24.55;;
27412;SDS011;14871;52.702;5.230;2023-11-18T02:39:42;40.65;;;23.25;;
27412;SDS011;14871;52.702;5.230;2023-11-18T02:42:10;45.20;;;25.20;;
27412;SDS011;14871;52.702;5.230;2023-11-18T02:44:37;45.70;;;24.70;;
27412;SDS011;14871;52.702;5.230;2023-11-18T02:47:04;43.00;;;24.83;;
27412;SDS011;14871;52.702;5.230;2023-11-18T02:49:30;44.45;;;26.15;;
27412;SDS011;14871;52.702;5.230;2023-11-18T02:51:57;38.72;;;24.45;;
27412;SDS011;14871;52.702;5.230;2023-11-18T02:54:22;45.15;;;25.90;;
27412;SDS011;14871;52.702;5.230;2023-11-18T02:56:48;42.10;;;23.85;;
27412;SDS011;14871;52.702;5.230;2023-11-18T02:59:15;48.00;;;25.98;;
27412;SDS011;14871;52.702;5.230;2023-11-18T03:01:41;44.75;;;25.23;;
27412;SDS011;14871;52.702;5.230;2023-11-18T03:04:07;42.22;;;24.17;;
27412;SDS011;14871;52.702;5.230;2023-11-18T03:06:33;41.28;;;24.33;;
27412;SDS011;14871;52.702;5.230;2023-11-18T03:09:00;42.22;;;24.73;;
27412;SDS011;14871;52.702;5.230;2023-11-18T03:11:27;49.63;;;24.30;;
27412;SDS011;14871;52.702;5.230;2023-11-18T03:13:56;39.42;;;24.08;;
27412;SDS011;14871;52.702;5.230;2023-11-18T03:16:22;40.35;;;24.23;;
27412;SDS011;14871;52.702;5.230;2023-11-18T03:18:49;45.40;;;23.90;;
27412;SDS011;14871;52.702;5.230;2023-11-18T03:21:15;41.10;;;23.48;;
27412;SDS011;14871;52.702;5.230;2023-11-18T03:23:41;37.38;;;24.10;;
27412;SDS011;14871;52.702;5.230;2023-11-18T03:26:07;43.20;;;24.55;;
27412;SDS011;14871;52.702;5.230;2023-11-18T03:28:36;42.78;;;23.55;;
27412;SDS011;14871;52.702;5.230;2023-11-18T03:31:05;42.53;;;25.27;;
27412;SDS011;14871;52.702;5.230;2023-11-18T03:33:31;40.35;;;23.40;;
27412;SDS011;14871;52.702;5.230;2023-11-18T03:35:58;41.63;;;23.70;;
27412;SDS011;14871;52.702;5.230;2023-11-18T03:38:23;36.80;;;22.98;;
27412;SDS011;14871;52.702;5.230;2023-11-18T03:40:50;37.28;;;23.02;;
27412;SDS011;14871;52.702;5.230;2023-11-18T03:43:17;40.33;;;23.95;;
27412;SDS011;14871;52.702;5.230;2023-11-18T03:45:43;41.85;;;24.42;;
27412;SDS011;14871;52.702;5.230;2023-11-18T03:48:09;39.33;;;24.60;;
27412;SDS011;14871;52.702;5.230;2023-11-18T03:50:39;37.38;;;24.00;;
27412;SDS011;14871;52.702;5.230;2023-11-18T03:53:05;41.35;;;23.85;;
27412;SDS011;14871;52.702;5.230;2023-11-18T03:55:31;42.47;;;24.30;;
27412;SDS011;14871;52.702;5.230;2023-11-18T03:57:57;41.65;;;24.33;;
27412;SDS011;14871;52.702;5.230;2023-11-18T04:00:22;40.60;;;23.77;;
27412;SDS011;14871;52.702;5.230;2023-11-18T04:02:55;38.65;;;22.92;;
27412;SDS011;14871;52.702;5.230;2023-11-18T04:05:24;39.88;;;23.75;;
27412;SDS011;14871;52.702;5.230;2023-11-18T04:07:49;41.63;;;25.50;;
27412;SDS011;14871;52.702;5.230;2023-11-18T04:10:15;43.35;;;23.80;;
27412;SDS011;14871;52.702;5.230;2023-11-18T04:12:43;38.92;;;24.67;;
27412;SDS011;14871;52.702;5.230;2023-11-18T04:15:11;35.78;;;23.67;;
27412;SDS011;14871;52.702;5.230;2023-11-18T04:17:37;37.55;;;24.13;;
27412;SDS011;14871;52.702;5.230;2023-11-18T04:20:03;39.22;;;25.90;;
27412;SDS011;14871;52.702;5.230;2023-11-18T04:22:33;40.88;;;24.08;;
27412;SDS011;14871;52.702;5.230;2023-11-18T04:24:59;37.35;;;23.05;;
27412;SDS011;14871;52.702;5.230;2023-11-18T04:27:24;35.78;;;24.48;;
27412;SDS011;14871;52.702;5.230;2023-11-18T04:29:50;36.10;;;23.00;;
27412;SDS011;14871;52.702;5.230;2023-11-18T04:32:16;39.08;;;24.08;;
27412;SDS011;14871;52.702;5.230;2023-11-18T04:34:41;39.97;;;24.20;;
27412;SDS011;14871;52.702;5.230;2023-11-18T04:37:07;38.63;;;23.88;;
27412;SDS011;14871;52.702;5.230;2023-11-18T04:39:33;41.42;;;24.08;;
27412;SDS011;14871;52.702;5.230;2023-11-18T04:41:58;36.70;;;22.60;;
27412;SDS011;14871;52.702;5.230;2023-11-18T04:44:26;39.30;;;22.33;;
27412;SDS011;14871;52.702;5.230;2023-11-18T04:46:52;40.13;;;23.75;;
27412;SDS011;14871;52.702;5.230;2023-11-18T04:49:17;42.20;;;23.50;;
27412;SDS011;14871;52.702;5.230;2023-11-18T04:51:44;39.85;;;23.05;;
27412;SDS011;14871;52.702;5.230;2023-11-18T04:54:09;42.33;;;22.65;;
27412;SDS011;14871;52.702;5.230;2023-11-18T04:56:35;35.50;;;23.83;;
27412;SDS011;14871;52.702;5.230;2023-11-18T04:59:04;39.55;;;22.92;;
27412;SDS011;14871;52.702;5.230;2023-11-18T05:01:30;37.80;;;22.17;;
27412;SDS011;14871;52.702;5.230;2023-11-18T05:03:57;37.75;;;21.95;;
27412;SDS011;14871;52.702;5.230;2023-11-18T05:06:22;39.83;;;22.63;;
27412;SDS011;14871;52.702;5.230;2023-11-18T05:08:48;39.13;;;22.17;;
27412;SDS011;14871;52.702;5.230;2023-11-18T05:11:14;35.22;;;22.00;;
27412;SDS011;14871;52.702;5.230;2023-11-18T05:13:40;39.97;;;23.65;;
27412;SDS011;14871;52.702;5.230;2023-11-18T05:16:06;35.80;;;22.73;;
27412;SDS011;14871;52.702;5.230;2023-11-18T05:18:32;35.47;;;22.40;;
27412;SDS011;14871;52.702;5.230;2023-11-18T05:21:01;36.47;;;22.08;;
27412;SDS011;14871;52.702;5.230;2023-11-18T05:23:28;35.75;;;20.52;;
27412;SDS011;14871;52.702;5.230;2023-11-18T05:25:56;37.70;;;21.30;;
27412;SDS011;14871;52.702;5.230;2023-11-18T05:28:26;30.67;;;20.52;;
27412;SDS011;14871;52.702;5.230;2023-11-18T05:30:51;34.05;;;20.75;;
27412;SDS011;14871;52.702;5.230;2023-11-18T05:33:17;30.75;;;19.35;;
27412;SDS011;14871;52.702;5.230;2023-11-18T05:35:44;31.00;;;20.48;;
27412;SDS011;14871;52.702;5.230;2023-11-18T05:38:17;36.60;;;19.73;;
27412;SDS011;14871;52.702;5.230;2023-11-18T05:40:43;36.75;;;21.15;;
27412;SDS011;14871;52.702;5.230;2023-11-18T05:43:20;37.50;;;23.20;;
27412;SDS011;14871;52.702;5.230;2023-11-18T05:45:47;37.75;;;21.30;;
27412;SDS011;14871;52.702;5.230;2023-11-18T05:48:31;37.03;;;20.55;;
27412;SDS011;14871;52.702;5.230;2023-11-18T05:50:57;35.22;;;19.90;;
27412;SDS011;14871;52.702;5.230;2023-11-18T05:53:22;32.70;;;20.75;;
27412;SDS011;14871;52.702;5.230;2023-11-18T05:55:48;36.50;;;22.13;;
27412;SDS011;14871;52.702;5.230;2023-11-18T05:58:14;37.05;;;21.23;;
27412;SDS011;14871;52.702;5.230;2023-11-18T06:00:40;36.90;;;21.10;;
27412;SDS011;14871;52.702;5.230;2023-11-18T06:03:05;34.30;;;20.98;;
27412;SDS011;14871;52.702;5.230;2023-11-18T06:05:31;36.45;;;21.27;;
27412;SDS011;14871;52.702;5.230;2023-11-18T06:07:59;39.28;;;22.48;;
27412;SDS011;14871;52.702;5.230;2023-11-18T06:10:25;39.10;;;22.42;;
27412;SDS011;14871;52.702;5.230;2023-11-18T06:12:51;35.55;;;22.45;;
27412;SDS011;14871;52.702;5.230;2023-11-18T06:15:18;42.45;;;25.67;;
27412;SDS011;14871;52.702;5.230;2023-11-18T06:17:44;37.90;;;21.73;;
27412;SDS011;14871;52.702;5.230;2023-11-18T06:20:10;38.00;;;21.20;;
27412;SDS011;14871;52.702;5.230;2023-11-18T06:22:39;37.53;;;21.67;;
27412;SDS011;14871;52.702;5.230;2023-11-18T06:25:05;37.05;;;21.70;;
27412;SDS011;14871;52.702;5.230;2023-11-18T06:27:32;38.55;;;22.02;;
27412;SDS011;14871;52.702;5.230;2023-11-18T06:29:58;38.28;;;22.10;;
27412;SDS011;14871;52.702;5.230;2023-11-18T06:32:24;36.92;;;20.40;;
27412;SDS011;14871;52.702;5.230;2023-11-18T06:34:51;36.47;;;21.38;;
27412;SDS011;14871;52.702;5.230;2023-11-18T06:37:18;35.60;;;19.83;;
27412;SDS011;14871;52.702;5.230;2023-11-18T06:39:44;32.22;;;19.38;;
27412;SDS011;14871;52.702;5.230;2023-11-18T06:42:12;32.45;;;19.88;;
27412;SDS011;14871;52.702;5.230;2023-11-18T06:44:38;37.40;;;20.50;;
27412;SDS011;14871;52.702;5.230;2023-11-18T06:47:04;40.10;;;21.40;;
27412;SDS011;14871;52.702;5.230;2023-11-18T06:49:31;32.05;;;20.30;;
27412;SDS011;14871;52.702;5.230;2023-11-18T06:51:59;32.10;;;20.08;;
27412;SDS011;14871;52.702;5.230;2023-11-18T06:54:31;38.72;;;20.98;;
27412;SDS011;14871;52.702;5.230;2023-11-18T06:56:58;31.73;;;19.40;;
27412;SDS011;14871;52.702;5.230;2023-11-18T06:59:24;32.63;;;18.92;;
27412;SDS011;14871;52.702;5.230;2023-11-18T07:01:49;32.50;;;18.77;;
27412;SDS011;14871;52.702;5.230;2023-11-18T07:04:15;31.73;;;20.08;;
27412;SDS011;14871;52.702;5.230;2023-11-18T07:06:40;33.90;;;19.05;;
27412;SDS011;14871;52.702;5.230;2023-11-18T07:09:08;32.05;;;19.45;;
27412;SDS011;14871;52.702;5.230;2023-11-18T07:11:45;34.90;;;20.27;;
27412;SDS011;14871;52.702;5.230;2023-11-18T07:14:12;34.30;;;19.15;;
27412;SDS011;14871;52.702;5.230;2023-11-18T07:16:40;30.85;;;19.15;;
27412;SDS011;14871;52.702;5.230;2023-11-18T07:19:06;39.03;;;19.92;;
27412;SDS011;14871;52.702;5.230;2023-11-18T07:21:33;33.58;;;19.00;;
27412;SDS011;14871;52.702;5.230;2023-11-18T07:23:59;34.83;;;20.52;;
27412;SDS011;14871;52.702;5.230;2023-11-18T07:26:27;34.95;;;19.52;;
27412;SDS011;14871;52.702;5.230;2023-11-18T07:28:52;35.65;;;19.42;;
27412;SDS011;14871;52.702;5.230;2023-11-18T07:31:18;36.80;;;20.02;;
27412;SDS011;14871;52.702;5.230;2023-11-18T07:33:44;35.10;;;19.55;;
27412;SDS011;14871;52.702;5.230;2023-11-18T07:36:15;37.13;;;19.38;;
27412;SDS011;14871;52.702;5.230;2023-11-18T07:38:41;33.00;;;19.08;;
27412;SDS011;14871;52.702;5.230;2023-11-18T07:41:07;35.92;;;19.38;;
27412;SDS011;14871;52.702;5.230;2023-11-18T07:43:48;36.08;;;19.13;;
27412;SDS011;14871;52.702;5.230;2023-11-18T07:46:21;33.53;;;18.40;;
27412;SDS011;14871;52.702;5.230;2023-11-18T07:48:48;35.78;;;20.00;;
27412;SDS011;14871;52.702;5.230;2023-11-18T07:51:14;31.58;;;18.58;;
27412;SDS011;14871;52.702;5.230;2023-11-18T07:53:40;36.70;;;18.80;;
27412;SDS011;14871;52.702;5.230;2023-11-18T07:56:07;40.47;;;20.83;;
27412;SDS011;14871;52.702;5.230;2023-11-18T07:58:36;35.60;;;18.85;;
27412;SDS011;14871;52.702;5.230;2023-11-18T08:01:02;37.53;;;20.30;;
27412;SDS011;14871;52.702;5.230;2023-11-18T08:03:32;39.17;;;20.27;;
27412;SDS011;14871;52.702;5.230;2023-11-18T08:05:58;42.53;;;21.42;;
27412;SDS011;14871;52.702;5.230;2023-11-18T08:08:24;37.85;;;19.55;;
27412;SDS011;14871;52.702;5.230;2023-11-18T08:10:50;33.05;;;19.67;;
27412;SDS011;14871;52.702;5.230;2023-11-18T08:13:16;34.60;;;19.67;;
27412;SDS011;14871;52.702;5.230;2023-11-18T08:15:42;36.50;;;19.88;;
27412;SDS011;14871;52.702;5.230;2023-11-18T08:18:10;41.60;;;20.55;;
27412;SDS011;14871;52.702;5.230;2023-11-18T08:20:36;36.25;;;19.75;;
27412;SDS011;14871;52.702;5.230;2023-11-18T08:23:02;38.25;;;19.80;;
27412;SDS011;14871;52.702;5.230;2023-11-18T08:25:29;38.95;;;18.65;;
27412;SDS011;14871;52.702;5.230;2023-11-18T08:27:58;35.15;;;19.05;;
27412;SDS011;14871;52.702;5.230;2023-11-18T08:30:25;37.28;;;18.45;;
27412;SDS011;14871;52.702;5.230;2023-11-18T08:32:51;32.85;;;19.83;;
27412;SDS011;14871;52.702;5.230;2023-11-18T08:35:17;32.33;;;19.42;;
27412;SDS011;14871;52.702;5.230;2023-11-18T08:37:43;32.72;;;18.08;;
27412;SDS011;14871;52.702;5.230;2023-11-18T08:40:10;31.67;;;17.52;;
27412;SDS011;14871;52.702;5.230;2023-11-18T08:42:51;31.05;;;17.17;;
27412;SDS011;14871;52.702;5.230;2023-11-18T08:45:19;32.83;;;17.20;;
27412;SDS011;14871;52.702;5.230;2023-11-18T08:47:58;35.13;;;18.13;;
27412;SDS011;14871;52.702;5.230;2023-11-18T08:50:26;31.75;;;16.92;;
27412;SDS011;14871;52.702;5.230;2023-11-18T08:52:54;32.47;;;17.27;;
27412;SDS011;14871;52.702;5.230;2023-11-18T08:55:26;33.20;;;17.27;;
27412;SDS011;14871;52.702;5.230;2023-11-18T08:58:10;38.38;;;17.55;;
27412;SDS011;14871;52.702;5.230;2023-11-18T09:00:53;32.60;;;16.73;;
27412;SDS011;14871;52.702;5.230;2023-11-18T09:03:38;31.50;;;16.45;;
27412;SDS011;14871;52.702;5.230;2023-11-18T09:06:08;34.17;;;17.17;;
27412;SDS011;14871;52.702;5.230;2023-11-18T09:08:50;25.13;;;15.93;;
27412;SDS011;14871;52.702;5.230;2023-11-18T09:11:20;28.58;;;15.93;;
27412;SDS011;14871;52.702;5.230;2023-11-18T09:13:53;32.72;;;16.67;;
27412;SDS011;14871;52.702;5.230;2023-11-18T09:16:22;32.95;;;15.55;;
27412;SDS011;14871;52.702;5.230;2023-11-18T09:18:51;29.92;;;16.27;;
27412;SDS011;14871;52.702;5.230;2023-11-18T09:21:17;34.28;;;17.83;;
27412;SDS011;14871;52.702;5.230;2023-11-18T09:23:50;30.33;;;16.13;;
27412;SDS011;14871;52.702;5.230;2023-11-18T09:26:15;28.67;;;15.80;;
27412;SDS011;14871;52.702;5.230;2023-11-18T09:28:42;32.47;;;15.20;;
27412;SDS011;14871;52.702;5.230;2023-11-18T09:31:10;30.95;;;15.07;;
27412;SDS011;14871;52.702;5.230;2023-11-18T09:33:40;29.48;;;15.85;;
27412;SDS011;14871;52.702;5.230;2023-11-18T09:36:11;30.35;;;14.93;;
27412;SDS011;14871;52.702;5.230;2023-11-18T09:38:38;30.45;;;15.50;;
27412;SDS011;14871;52.702;5.230;2023-11-18T09:41:08;32.20;;;15.23;;
27412;SDS011;14871;52.702;5.230;2023-11-18T09:43:41;29.95;;;14.35;;
27412;SDS011;14871;52.702;5.230;2023-11-18T09:46:12;27.73;;;13.73;;
27412;SDS011;14871;52.702;5.230;2023-11-18T09:51:58;23.58;;;13.18;;
27412;SDS011;14871;52.702;5.230;2023-11-18T09:57:11;25.02;;;13.25;;
27412;SDS011;14871;52.702;5.230;2023-11-18T10:02:58;25.00;;;12.80;;
27412;SDS011;14871;52.702;5.230;2023-11-18T10:05:26;26.63;;;13.43;;
27412;SDS011;14871;52.702;5.230;2023-11-18T10:07:52;28.85;;;13.52;;
27412;SDS011;14871;52.702;5.230;2023-11-18T10:10:21;23.95;;;12.27;;
27412;SDS011;14871;52.702;5.230;2023-11-18T10:12:47;29.02;;;12.60;;
27412;SDS011;14871;52.702;5.230;2023-11-18T10:15:17;23.88;;;13.00;;
27412;SDS011;14871;52.702;5.230;2023-11-18T10:17:50;23.65;;;13.10;;
27412;SDS011;14871;52.702;5.230;2023-11-18T10:20:47;26.65;;;12.32;;
27412;SDS011;14871;52.702;5.230;2023-11-18T10:23:17;22.27;;;12.13;;
27412;SDS011;14871;52.702;5.230;2023-11-18T10:25:51;25.98;;;13.35;;
27412;SDS011;14871;52.702;5.230;2023-11-18T10:28:21;19.35;;;12.10;;
27412;SDS011;14871;52.702;5.230;2023-11-18T10:31:04;19.58;;;11.30;;
27412;SDS011;14871;52.702;5.230;2023-11-18T10:33:34;23.77;;;12.60;;
27412;SDS011;14871;52.702;5.230;2023-11-18T10:36:01;21.83;;;12.55;;
27412;SDS011;14871;52.702;5.230;2023-11-18T10:38:31;25.23;;;12.15;;
27412;SDS011;14871;52.702;5.230;2023-11-18T10:41:01;20.45;;;12.07;;
27412;SDS011;14871;52.702;5.230;2023-11-18T10:43:27;22.05;;;12.40;;
27412;SDS011;14871;52.702;5.230;2023-11-18T10:46:05;22.23;;;12.38;;
27412;SDS011;14871;52.702;5.230;2023-11-18T10:48:44;22.08;;;12.18;;
27412;SDS011;14871;52.702;5.230;2023-11-18T10:51:15;22.55;;;11.90;;
27412;SDS011;14871;52.702;5.230;2023-11-18T10:53:48;19.95;;;11.93;;
27412;SDS011;14871;52.702;5.230;2023-11-18T10:56:23;21.77;;;12.50;;
27412;SDS011;14871;52.702;5.230;2023-11-18T10:58:52;19.95;;;11.35;;
27412;SDS011;14871;52.702;5.230;2023-11-18T11:01:27;20.02;;;11.40;;
27412;SDS011;14871;52.702;5.230;2023-11-18T11:03:59;23.95;;;12.05;;
27412;SDS011;14871;52.702;5.230;2023-11-18T11:06:25;21.95;;;12.10;;
27412;SDS011;14871;52.702;5.230;2023-11-18T11:08:55;22.00;;;12.63;;
27412;SDS011;14871;52.702;5.230;2023-11-18T11:11:26;25.90;;;11.65;;
27412;SDS011;14871;52.702;5.230;2023-11-18T11:14:02;23.43;;;11.67;;
27412;SDS011;14871;52.702;5.230;2023-11-18T11:16:36;20.70;;;11.48;;
27412;SDS011;14871;52.702;5.230;2023-11-18T11:19:08;20.40;;;11.60;;
27412;SDS011;14871;52.702;5.230;2023-11-18T11:21:50;17.77;;;11.07;;
27412;SDS011;14871;52.702;5.230;2023-11-18T11:24:24;22.98;;;12.43;;
27412;SDS011;14871;52.702;5.230;2023-11-18T11:27:06;22.27;;;11.95;;
27412;SDS011;14871;52.702;5.230;2023-11-18T11:29:44;22.13;;;10.95;;
27412;SDS011;14871;52.702;5.230;2023-11-18T11:34:53;21.25;;;11.90;;
27412;SDS011;14871;52.702;5.230;2023-11-18T11:37:22;21.63;;;11.73;;
27412;SDS011;14871;52.702;5.230;2023-11-18T11:39:55;22.95;;;11.68;;
27412;SDS011;14871;52.702;5.230;2023-11-18T11:42:23;17.52;;;10.25;;
27412;SDS011;14871;52.702;5.230;2023-11-18T11:44:49;19.77;;;11.10;;
27412;SDS011;14871;52.702;5.230;2023-11-18T11:47:18;20.05;;;10.32;;
27412;SDS011;14871;52.702;5.230;2023-11-18T11:50:06;16.08;;;10.20;;
27412;SDS011;14871;52.702;5.230;2023-11-18T11:52:45;19.92;;;9.88;;
27412;SDS011;14871;52.702;5.230;2023-11-18T11:55:22;17.60;;;10.32;;
27412;SDS011;14871;52.702;5.230;2023-11-18T11:57:55;18.33;;;9.82;;
27412;SDS011;14871;52.702;5.230;2023-11-18T12:00:25;19.27;;;10.70;;
27412;SDS011;14871;52.702;5.230;2023-11-18T12:02:59;24.33;;;11.47;;
27412;SDS011;14871;52.702;5.230;2023-11-18T12:05:29;19.02;;;10.38;;
27412;SDS011;14871;52.702;5.230;2023-11-18T12:07:58;19.20;;;10.07;;
27412;SDS011;14871;52.702;5.230;2023-11-18T12:10:30;18.05;;;11.15;;
27412;SDS011;14871;52.702;5.230;2023-11-18T12:13:11;16.50;;;10.45;;
27412;SDS011;14871;52.702;5.230;2023-11-18T12:15:48;16.55;;;10.45;;
27412;SDS011;14871;52.702;5.230;2023-11-18T12:18:19;18.30;;;10.65;;
27412;SDS011;14871;52.702;5.230;2023-11-18T12:20:46;16.67;;;10.05;;
27412;SDS011;14871;52.702;5.230;2023-11-18T12:23:15;21.45;;;11.10;;
27412;SDS011;14871;52.702;5.230;2023-11-18T12:25:46;17.40;;;9.63;;
27412;SDS011;14871;52.702;5.230;2023-11-18T12:28:14;17.83;;;10.25;;
27412;SDS011;14871;52.702;5.230;2023-11-18T12:30:42;17.25;;;9.70;;
27412;SDS011;14871;52.702;5.230;2023-11-18T12:33:17;17.75;;;9.57;;
27412;SDS011;14871;52.702;5.230;2023-11-18T12:49:37;17.42;;;9.82;;
27412;SDS011;14871;52.702;5.230;2023-11-18T12:52:06;17.27;;;8.75;;
27412;SDS011;14871;52.702;5.230;2023-11-18T12:54:38;11.88;;;8.43;;
27412;SDS011;14871;52.702;5.230;2023-11-18T12:57:08;15.95;;;7.28;;
27412;SDS011;14871;52.702;5.230;2023-11-18T12:59:34;13.82;;;8.02;;
27412;SDS011;14871;52.702;5.230;2023-11-18T13:02:01;13.68;;;8.50;;
27412;SDS011;14871;52.702;5.230;2023-11-18T13:04:32;17.55;;;8.88;;
27412;SDS011;14871;52.702;5.230;2023-11-18T13:07:05;13.32;;;8.90;;
27412;SDS011;14871;52.702;5.230;2023-11-18T13:09:33;13.35;;;8.18;;
27412;SDS011;14871;52.702;5.230;2023-11-18T13:12:01;13.98;;;7.82;;
27412;SDS011;14871;52.702;5.230;2023-11-18T13:14:31;13.43;;;7.95;;
27412;SDS011;14871;52.702;5.230;2023-11-18T13:17:04;12.30;;;7.20;;
27412;SDS011;14871;52.702;5.230;2023-11-18T13:19:33;14.70;;;7.75;;
27412;SDS011;14871;52.702;5.230;2023-11-18T13:22:06;13.80;;;8.23;;
27412;SDS011;14871;52.702;5.230;2023-11-18T13:24:34;12.00;;;7.68;;
27412;SDS011;14871;52.702;5.230;2023-11-18T13:27:01;11.50;;;7.00;;
27412;SDS011;14871;52.702;5.230;2023-11-18T13:29:32;11.85;;;6.82;;
27412;SDS011;14871;52.702;5.230;2023-11-18T13:32:00;10.77;;;6.63;;
27412;SDS011;14871;52.702;5.230;2023-11-18T13:34:30;14.63;;;6.65;;
27412;SDS011;14871;52.702;5.230;2023-11-18T13:36:58;14.85;;;6.70;;
27412;SDS011;14871;52.702;5.230;2023-11-18T13:39:25;13.75;;;7.00;;
27412;SDS011;14871;52.702;5.230;2023-11-18T13:41:52;13.45;;;6.43;;
27412;SDS011;14871;52.702;5.230;2023-11-18T13:44:34;11.57;;;6.28;;
27412;SDS011;14871;52.702;5.230;2023-11-18T13:47:04;9.82;;;6.22;;
27412;SDS011;14871;52.702;5.230;2023-11-18T13:49:33;10.10;;;5.95;;
27412;SDS011;14871;52.702;5.230;2023-11-18T13:51:59;9.38;;;5.78;;
27412;SDS011;14871;52.702;5.230;2023-11-18T13:54:28;11.55;;;6.22;;
27412;SDS011;14871;52.702;5.230;2023-11-18T13:56:55;12.57;;;6.28;;
27412;SDS011;14871;52.702;5.230;2023-11-18T13:59:26;9.85;;;5.55;;
27412;SDS011;14871;52.702;5.230;2023-11-18T14:01:53;11.15;;;5.25;;
27412;SDS011;14871;52.702;5.230;2023-11-18T14:04:39;8.85;;;5.03;;
27412;SDS011;14871;52.702;5.230;2023-11-18T14:07:04;11.13;;;5.07;;
27412;SDS011;14871;52.702;5.230;2023-11-18T14:09:33;7.97;;;4.68;;
27412;SDS011;14871;52.702;5.230;2023-11-18T14:12:02;8.25;;;4.63;;
27412;SDS011;14871;52.702;5.230;2023-11-18T14:14:31;7.43;;;4.43;;
27412;SDS011;14871;52.702;5.230;2023-11-18T14:16:57;7.43;;;4.47;;
27412;SDS011;14871;52.702;5.230;2023-11-18T14:19:27;9.85;;;4.40;;
27412;SDS011;14871;52.702;5.230;2023-11-18T14:21:54;7.60;;;4.53;;
27412;SDS011;14871;52.702;5.230;2023-11-18T14:24:21;8.60;;;4.80;;
27412;SDS011;14871;52.702;5.230;2023-11-18T14:26:53;3.78;;;3.22;;
27412;SDS011;14871;52.702;5.230;2023-11-18T14:29:19;5.20;;;3.58;;
27412;SDS011;14871;52.702;5.230;2023-11-18T14:31:45;6.25;;;3.47;;
27412;SDS011;14871;52.702;5.230;2023-11-18T14:34:11;6.43;;;3.30;;
27412;SDS011;14871;52.702;5.230;2023-11-18T14:36:37;6.82;;;3.40;;
27412;SDS011;14871;52.702;5.230;2023-11-18T14:39:03;4.22;;;2.88;;
27412;SDS011;14871;52.702;5.230;2023-11-18T14:41:29;6.97;;;2.75;;
27412;SDS011;14871;52.702;5.230;2023-11-18T14:43:59;4.65;;;2.80;;
27412;SDS011;14871;52.702;5.230;2023-11-18T14:46:27;5.10;;;2.97;;
27412;SDS011;14871;52.702;5.230;2023-11-18T14:48:52;3.75;;;2.83;;
27412;SDS011;14871;52.702;5.230;2023-11-18T14:51:18;5.13;;;2.97;;
27412;SDS011;14871;52.702;5.230;2023-11-18T14:53:44;6.15;;;3.08;;
27412;SDS011;14871;52.702;5.230;2023-11-18T14:56:09;4.72;;;3.08;;
27412;SDS011;14871;52.702;5.230;2023-11-18T14:58:35;5.32;;;3.00;;